createdAt,value
2023-02-12T00:00:53.296Z,4.80
2023-02-12T00:03:25.332Z,5.50
2023-02-12T00:06:01.479Z,3.65
2023-02-12T00:08:33.615Z,4.45
2023-02-12T00:11:19.357Z,3.20
2023-02-12T00:13:51.793Z,4.32
2023-02-12T00:16:29.321Z,2.65
2023-02-12T00:19:01.513Z,2.95
2023-02-12T00:21:36.489Z,2.58
2023-02-12T00:24:08.626Z,5.30
2023-02-12T00:26:40.735Z,4.13
2023-02-12T00:29:13.037Z,4.47
2023-02-12T00:31:45.055Z,3.60
2023-02-12T00:34:17.102Z,4.15
2023-02-12T00:36:49.061Z,2.90
2023-02-12T00:39:21.079Z,2.50
2023-02-12T00:41:53.174Z,1.83
2023-02-12T00:44:25.151Z,2.10
2023-02-12T00:46:57.597Z,2.83
2023-02-12T00:49:34.502Z,1.90
2023-02-12T00:52:06.753Z,2.53
2023-02-12T00:54:38.969Z,2.63
2023-02-12T00:57:10.970Z,2.65
2023-02-12T00:59:43.220Z,2.30
2023-02-12T01:02:15.168Z,1.98
2023-02-12T01:04:47.259Z,1.90
2023-02-12T01:07:19.225Z,1.90
2023-02-12T01:09:51.283Z,2.45
2023-02-12T01:12:23.220Z,2.40
2023-02-12T01:14:55.105Z,2.40
2023-02-12T01:17:26.967Z,3.58
2023-02-12T01:20:00.429Z,2.10
2023-02-12T01:22:32.517Z,3.58
2023-02-12T01:25:08.109Z,3.42
2023-02-12T01:27:40.178Z,2.50
2023-02-12T01:30:13.952Z,2.50
2023-02-12T01:32:45.906Z,1.63
2023-02-12T01:35:17.989Z,2.25
2023-02-12T01:37:49.909Z,2.70
2023-02-12T01:40:21.819Z,2.67
2023-02-12T01:42:53.784Z,2.78
2023-02-12T01:45:28.521Z,3.30
2023-02-12T01:48:01.360Z,3.58
2023-02-12T01:50:33.408Z,2.30
2023-02-12T01:53:05.845Z,2.38
2023-02-12T01:55:37.830Z,2.75
2023-02-12T01:58:10.429Z,2.53
2023-02-12T02:00:42.589Z,2.22
2023-02-12T02:03:14.853Z,1.88
2023-02-12T02:06:12.782Z,2.58
2023-02-12T02:08:44.766Z,1.85
2023-02-12T02:11:35.346Z,1.83
2023-02-12T02:14:26.096Z,2.15
2023-02-12T02:20:14.505Z,2.10
2023-02-12T02:23:11.023Z,2.00
2023-02-12T02:25:48.984Z,4.13
2023-02-12T02:28:41.653Z,3.63
2023-02-12T02:31:40.208Z,2.28
2023-02-12T02:34:23.908Z,3.33
2023-02-12T02:37:18.062Z,2.83
2023-02-12T02:40:11.248Z,2.60
2023-02-12T02:43:06.755Z,2.38
2023-02-12T02:45:46.220Z,2.80
2023-02-12T02:48:34.158Z,2.70
2023-02-12T02:51:15.226Z,2.60
2023-02-12T02:53:57.869Z,2.17
2023-02-12T02:56:31.351Z,2.88
2023-02-12T02:59:11.259Z,2.90
2023-02-12T03:01:57.360Z,2.80
2023-02-12T03:04:37.186Z,3.08
2023-02-12T03:07:27.629Z,2.78
2023-02-12T03:10:04.494Z,3.15
2023-02-12T03:13:02.657Z,3.10
2023-02-12T03:15:41.590Z,2.17
2023-02-12T03:18:27.320Z,2.25
2023-02-12T03:21:03.933Z,2.35
2023-02-12T03:23:55.761Z,2.28
2023-02-12T03:26:47.211Z,2.40
2023-02-12T03:29:19.178Z,2.35
2023-02-12T03:32:15.901Z,2.35
2023-02-12T03:35:25.573Z,2.10
2023-02-12T03:38:05.059Z,2.58
2023-02-12T03:40:45.324Z,2.40
2023-02-12T03:43:44.362Z,2.50
2023-02-12T03:46:34.581Z,2.00
2023-02-12T03:49:35.570Z,2.17
2023-02-12T03:52:07.540Z,2.40
2023-02-12T03:54:39.590Z,1.90
2023-02-12T03:57:17.834Z,2.50
2023-02-12T03:59:50.645Z,2.63
2023-02-12T04:02:22.649Z,1.83
2023-02-12T04:04:54.560Z,1.85
2023-02-12T04:07:26.571Z,2.00
2023-02-12T04:09:58.697Z,2.30
2023-02-12T04:12:40.948Z,2.13
2023-02-12T04:15:49.953Z,2.50
2023-02-12T04:18:32.502Z,2.50
2023-02-12T04:21:29.530Z,1.77
2023-02-12T04:24:20.390Z,2.60
2023-02-12T04:29:48.733Z,2.08
2023-02-12T04:32:39.561Z,2.47
2023-02-12T04:37:50.580Z,2.20
2023-02-12T04:40:23.433Z,1.95
2023-02-12T04:42:55.442Z,2.08
2023-02-12T04:45:29.988Z,1.90
2023-02-12T04:48:02.505Z,2.35
2023-02-12T04:50:43.388Z,2.00
2023-02-12T04:53:15.337Z,1.85
2023-02-12T04:55:48.046Z,2.15
2023-02-12T04:58:20.264Z,2.33
2023-02-12T05:00:52.277Z,2.20
2023-02-12T05:03:24.281Z,2.00
2023-02-12T05:05:56.565Z,2.15
2023-02-12T05:08:28.734Z,2.88
2023-02-12T05:11:06.703Z,2.60
2023-02-12T05:13:39.194Z,2.75
2023-02-12T05:16:11.151Z,2.70
2023-02-12T05:18:43.403Z,2.70
2023-02-12T05:21:15.627Z,3.03
2023-02-12T05:23:47.588Z,2.90
2023-02-12T05:26:22.429Z,3.33
2023-02-12T05:28:54.406Z,3.15
2023-02-12T05:31:26.638Z,2.75
2023-02-12T05:33:58.716Z,2.90
2023-02-12T05:36:30.741Z,2.50
2023-02-12T05:39:02.790Z,2.53
2023-02-12T05:41:35.909Z,2.50
2023-02-12T05:44:07.919Z,2.75
2023-02-12T05:46:40.003Z,2.55
2023-02-12T05:49:12.081Z,2.45
2023-02-12T05:51:43.999Z,2.67
2023-02-12T05:54:16.068Z,2.63
2023-02-12T05:56:48.300Z,2.55
2023-02-12T05:59:23.113Z,2.60
2023-02-12T06:01:55.439Z,2.25
2023-02-12T06:04:29.305Z,2.60
2023-02-12T06:07:01.563Z,2.80
2023-02-12T06:09:35.303Z,2.83
2023-02-12T06:12:07.336Z,2.30
2023-02-12T06:14:41.322Z,3.17
2023-02-12T06:17:13.376Z,3.38
2023-02-12T06:19:45.381Z,3.42
2023-02-12T06:22:17.401Z,3.35
2023-02-12T06:24:49.334Z,4.15
2023-02-12T06:27:21.341Z,5.88
2023-02-12T06:29:53.272Z,3.80
2023-02-12T06:32:25.605Z,4.65
2023-02-12T06:34:57.596Z,4.03
2023-02-12T06:37:29.770Z,4.30
2023-02-12T06:40:01.730Z,2.50
2023-02-12T06:42:33.769Z,3.30
2023-02-12T06:45:05.918Z,3.67
2023-02-12T06:47:37.819Z,3.50
2023-02-12T06:50:10.078Z,3.10
2023-02-12T06:52:42.033Z,4.45
2023-02-12T06:55:14.126Z,3.00
2023-02-12T06:57:46.047Z,3.58
2023-02-12T07:00:18.874Z,4.93
2023-02-12T07:02:58.208Z,3.72
2023-02-12T07:05:30.227Z,2.83
2023-02-12T07:08:02.242Z,2.67
2023-02-12T07:10:34.206Z,2.80
2023-02-12T07:13:06.174Z,2.95
2023-02-12T07:15:40.835Z,3.53
2023-02-12T07:18:12.928Z,4.47
2023-02-12T07:20:44.892Z,6.28
2023-02-12T07:23:16.798Z,7.55
2023-02-12T07:25:59.952Z,4.28
2023-02-12T07:28:35.516Z,3.00
2023-02-12T07:31:16.177Z,3.03
2023-02-12T07:36:21.560Z,3.65
2023-02-12T07:38:54.976Z,9.63
2023-02-12T07:41:29.769Z,2.72
2023-02-12T07:44:11.603Z,2.40
2023-02-12T07:46:48.467Z,2.78
2023-02-12T07:49:22.738Z,14.73
2023-02-12T07:51:57.185Z,7.18
2023-02-12T07:54:29.119Z,3.63
2023-02-12T07:57:01.123Z,3.00
2023-02-12T07:59:33.271Z,2.40
2023-02-12T08:02:05.296Z,2.47
2023-02-12T08:04:37.315Z,2.80
2023-02-12T08:07:09.290Z,2.70
2023-02-12T08:09:41.320Z,3.10
2023-02-12T08:12:13.212Z,4.60
2023-02-12T08:14:45.485Z,3.90
2023-02-12T08:17:17.512Z,5.47
2023-02-12T08:19:49.469Z,4.00
2023-02-12T08:22:21.400Z,3.72
2023-02-12T08:24:53.373Z,5.15
2023-02-12T08:27:25.312Z,4.25
2023-02-12T08:29:57.268Z,4.15
2023-02-12T08:32:29.765Z,4.22
2023-02-12T08:35:01.871Z,12.40
2023-02-12T08:37:33.806Z,2.80
2023-02-12T08:40:06.294Z,3.60
2023-02-12T08:42:38.278Z,3.60
2023-02-12T08:45:10.453Z,5.30
2023-02-12T08:47:42.417Z,5.80
2023-02-12T08:50:14.525Z,5.65
2023-02-12T08:52:46.754Z,4.28
2023-02-12T08:55:18.824Z,4.68
2023-02-12T08:57:50.824Z,5.45
2023-02-12T09:00:23.383Z,3.30
2023-02-12T09:02:55.681Z,2.97
2023-02-12T09:05:27.665Z,3.13
2023-02-12T09:07:59.796Z,3.83
2023-02-12T09:10:32.034Z,8.15
2023-02-12T09:13:04.019Z,6.25
2023-02-12T09:15:40.174Z,3.50
2023-02-12T09:18:14.270Z,3.17
2023-02-12T09:20:46.269Z,4.45
2023-02-12T09:23:18.413Z,2.92
2023-02-12T09:25:50.416Z,3.30
2023-02-12T09:28:22.769Z,3.53
2023-02-12T09:30:54.734Z,7.13
2023-02-12T09:33:26.769Z,13.90
2023-02-12T09:36:05.406Z,4.45
2023-02-12T09:38:37.749Z,7.60
2023-02-12T09:41:43.696Z,5.00
2023-02-12T09:44:37.808Z,3.60
2023-02-12T09:47:09.780Z,8.75
2023-02-12T09:49:57.259Z,10.57
2023-02-12T09:52:30.491Z,7.68
2023-02-12T09:55:03.001Z,4.18
2023-02-12T09:57:38.310Z,4.35
2023-02-12T10:00:16.013Z,4.55
2023-02-12T10:02:52.372Z,5.10
2023-02-12T10:05:29.425Z,5.18
2023-02-12T10:08:10.298Z,6.45
2023-02-12T10:11:19.119Z,5.32
2023-02-12T10:14:24.577Z,3.97
2023-02-12T10:17:18.261Z,3.60
2023-02-12T10:20:12.201Z,3.58
2023-02-12T10:22:56.207Z,4.40
2023-02-12T10:25:31.609Z,3.97
2023-02-12T10:28:12.884Z,4.10
2023-02-12T10:30:59.014Z,3.30
2023-02-12T10:33:44.873Z,5.60
2023-02-12T10:36:19.692Z,5.25
2023-02-12T10:38:58.608Z,4.32
2023-02-12T10:41:32.859Z,3.80
2023-02-12T10:44:04.836Z,3.90
2023-02-12T10:46:37.098Z,5.10
2023-02-12T10:49:13.893Z,4.47
2023-02-12T10:52:25.141Z,4.53
2023-02-12T10:54:57.184Z,5.00
2023-02-12T10:57:31.750Z,4.68
2023-02-12T11:00:29.296Z,4.43
2023-02-12T11:03:12.139Z,5.40
2023-02-12T11:05:45.107Z,5.03
2023-02-12T11:08:39.093Z,5.32
2023-02-12T11:11:27.473Z,5.00
2023-02-12T11:14:20.475Z,4.15
2023-02-12T11:16:57.941Z,5.20
2023-02-12T11:19:31.917Z,5.00
2023-02-12T11:22:19.102Z,3.83
2023-02-12T11:25:02.309Z,3.85
2023-02-12T11:27:34.716Z,4.00
2023-02-12T11:30:22.619Z,5.43
2023-02-12T11:32:54.578Z,4.53
2023-02-12T11:35:28.855Z,4.88
2023-02-12T11:38:02.876Z,4.57
2023-02-12T11:40:35.012Z,3.50
2023-02-12T11:43:09.912Z,3.88
2023-02-12T11:45:48.421Z,3.83
2023-02-12T11:48:34.241Z,3.55
2023-02-12T11:51:19.406Z,4.60
2023-02-12T11:53:54.945Z,4.13
2023-02-12T11:56:42.447Z,18.58
2023-02-12T11:59:36.935Z,4.50
2023-02-12T12:02:14.583Z,4.57
2023-02-12T12:04:52.345Z,7.85
2023-02-12T12:07:32.343Z,4.43
2023-02-12T12:10:16.349Z,3.87
2023-02-12T12:12:50.896Z,4.38
2023-02-12T12:15:52.531Z,5.10
2023-02-12T12:18:45.280Z,3.90
2023-02-12T12:21:36.976Z,3.40
2023-02-12T12:24:20.680Z,3.92
2023-02-12T12:27:59.782Z,4.28
2023-02-12T12:30:34.649Z,5.82
2023-02-12T12:33:29.828Z,4.90
2023-02-12T12:36:13.923Z,6.80
2023-02-12T12:39:14.581Z,5.18
2023-02-12T12:42:07.984Z,8.05
2023-02-12T12:44:58.249Z,7.55
2023-02-12T12:48:15.335Z,8.40
2023-02-12T12:51:05.432Z,7.50
2023-02-12T12:53:52.957Z,4.47
2023-02-12T12:56:49.710Z,6.35
2023-02-12T12:59:21.863Z,5.93
2023-02-12T13:02:19.672Z,4.45
2023-02-12T13:05:30.536Z,6.10
2023-02-12T13:08:46.976Z,18.42
2023-02-12T13:11:46.625Z,4.57
2023-02-12T13:14:29.144Z,6.13
2023-02-12T13:17:19.894Z,5.78
2023-02-12T13:20:20.353Z,4.68
2023-02-12T13:23:07.419Z,4.40
2023-02-12T13:25:51.848Z,5.57
2023-02-12T13:28:36.773Z,7.82
2023-02-12T13:31:32.065Z,6.55
2023-02-12T13:34:14.113Z,7.22
2023-02-12T13:36:46.967Z,6.13
2023-02-12T13:39:35.609Z,6.53
2023-02-12T13:42:07.402Z,4.05
2023-02-12T13:44:51.601Z,4.32
2023-02-12T13:47:57.193Z,8.07
2023-02-12T13:50:35.217Z,5.70
2023-02-12T13:53:16.288Z,4.07
2023-02-12T13:56:07.371Z,8.23
2023-02-12T13:58:40.236Z,12.75
2023-02-12T14:01:14.940Z,36.78
2023-02-12T14:03:47.574Z,10.75
2023-02-12T14:06:21.976Z,16.42
2023-02-12T14:09:09.558Z,19.42
2023-02-12T14:12:10.355Z,8.80
2023-02-12T14:14:50.742Z,18.88
2023-02-12T14:17:28.677Z,12.05
2023-02-12T14:20:28.717Z,5.60
2023-02-12T14:23:02.533Z,5.53
2023-02-12T14:25:40.438Z,8.75
2023-02-12T14:28:29.445Z,12.02
2023-02-12T14:31:20.238Z,10.57
2023-02-12T14:34:16.857Z,17.83
2023-02-12T14:37:09.290Z,11.35
2023-02-12T14:39:41.347Z,8.43
2023-02-12T14:42:13.219Z,9.80
2023-02-12T14:44:56.311Z,11.88
2023-02-12T14:47:30.952Z,9.77
2023-02-12T14:50:29.205Z,9.65
2023-02-12T14:53:13.211Z,8.82
2023-02-12T14:55:47.521Z,9.32
2023-02-12T14:58:24.814Z,12.07
2023-02-12T15:01:00.312Z,10.45
2023-02-12T15:03:43.460Z,10.38
2023-02-12T15:06:27.882Z,11.77
2023-02-12T15:09:07.810Z,12.60
2023-02-12T15:11:47.389Z,13.23
2023-02-12T15:14:23.736Z,12.93
2023-02-12T15:17:08.857Z,12.55
2023-02-12T15:20:00.207Z,12.77
2023-02-12T15:22:38.565Z,12.65
2023-02-12T15:25:17.848Z,15.40
2023-02-12T15:27:51.212Z,16.08
2023-02-12T15:30:27.079Z,18.92
2023-02-12T15:33:03.426Z,20.23
2023-02-12T15:35:39.539Z,20.65
2023-02-12T15:38:27.732Z,22.02
2023-02-12T15:41:01.732Z,26.58
2023-02-12T15:43:40.137Z,24.52
2023-02-12T15:46:17.514Z,25.52
2023-02-12T15:48:49.880Z,25.15
2023-02-12T15:51:35.701Z,23.88
2023-02-12T15:54:08.082Z,19.45
2023-02-12T15:56:42.009Z,19.45
2023-02-12T15:59:27.245Z,20.00
2023-02-12T16:02:03.691Z,17.70
2023-02-12T16:04:37.613Z,19.33
2023-02-12T16:07:12.984Z,21.55
2023-02-12T16:09:45.984Z,28.67
2023-02-12T16:12:21.965Z,27.15
2023-02-12T16:14:56.436Z,19.83
2023-02-12T16:17:35.312Z,20.55
2023-02-12T16:20:29.816Z,21.77
2023-02-12T16:23:06.662Z,21.05
2023-02-12T16:25:40.629Z,19.48
2023-02-12T16:28:22.538Z,18.70
2023-02-12T16:31:08.487Z,18.63
2023-02-12T16:33:40.347Z,19.58
2023-02-12T16:36:22.820Z,19.73
2023-02-12T16:39:06.401Z,26.10
2023-02-12T16:42:04.726Z,24.10
2023-02-12T16:44:36.625Z,21.95
2023-02-12T16:47:21.371Z,21.38
2023-02-12T16:50:02.099Z,21.30
2023-02-12T16:55:17.854Z,19.30
2023-02-12T16:57:49.794Z,21.02
2023-02-12T17:00:22.860Z,20.40
2023-02-12T17:02:56.269Z,19.77
2023-02-12T17:05:28.211Z,19.23
2023-02-12T17:08:00.090Z,21.42
2023-02-12T17:10:31.980Z,26.92
2023-02-12T17:13:03.909Z,34.47
2023-02-12T17:15:43.070Z,31.55
2023-02-12T17:18:18.286Z,32.17
2023-02-12T17:21:19.305Z,26.52
2023-02-12T17:23:51.385Z,28.52
2023-02-12T17:26:24.655Z,26.48
2023-02-12T17:29:05.568Z,26.45
2023-02-12T17:31:37.993Z,30.23
2023-02-12T17:34:10.178Z,34.70
2023-02-12T17:36:42.491Z,29.80
2023-02-12T17:39:15.713Z,33.58
2023-02-12T17:41:47.827Z,77.70
2023-02-12T17:44:19.793Z,79.72
2023-02-12T17:46:52.225Z,82.30
2023-02-12T17:49:24.201Z,69.18
2023-02-12T17:51:56.096Z,77.53
2023-02-12T17:54:28.363Z,54.65
2023-02-12T17:57:00.269Z,40.80
2023-02-12T17:59:32.712Z,35.33
2023-02-12T18:02:04.846Z,34.47
2023-02-12T18:04:36.915Z,37.60
2023-02-12T18:07:09.578Z,42.50
2023-02-12T18:09:41.715Z,28.52
2023-02-12T18:12:13.694Z,27.88
2023-02-12T18:14:45.798Z,39.55
2023-02-12T18:17:17.657Z,34.30
2023-02-12T18:19:50.069Z,34.33
2023-02-12T18:22:22.454Z,33.33
2023-02-12T18:24:56.009Z,29.80
2023-02-12T18:27:28.269Z,46.97
2023-02-12T18:30:00.220Z,53.30
2023-02-12T18:32:32.209Z,88.63
2023-02-12T18:35:05.663Z,113.38
2023-02-12T18:37:37.720Z,100.93
2023-02-12T18:40:09.960Z,83.93
2023-02-12T18:42:42.201Z,75.10
2023-02-12T18:45:14.226Z,111.82
2023-02-12T18:47:46.361Z,100.03
2023-02-12T18:50:18.370Z,91.35
2023-02-12T18:52:50.299Z,77.35
2023-02-12T18:55:22.301Z,79.82
2023-02-12T18:57:55.061Z,99.07
2023-02-12T19:00:27.142Z,99.22
2023-02-12T19:02:59.170Z,97.70
2023-02-12T19:05:31.661Z,83.55
2023-02-12T19:08:03.887Z,50.67
2023-02-12T19:10:39.329Z,42.17
2023-02-12T19:13:11.350Z,42.78
2023-02-12T19:15:43.464Z,38.25
2023-02-12T19:18:16.844Z,33.35
2023-02-12T19:20:48.779Z,31.95
2023-02-12T19:23:20.698Z,29.20
2023-02-12T19:25:52.644Z,28.63
2023-02-12T19:28:24.630Z,33.97
2023-02-12T19:30:57.013Z,35.80
2023-02-12T19:33:29.247Z,36.53
2023-02-12T19:36:01.212Z,38.75
2023-02-12T19:38:35.209Z,39.83
2023-02-12T19:41:10.586Z,40.03
2023-02-12T19:43:43.833Z,39.50
2023-02-12T19:46:18.804Z,38.58
2023-02-12T19:48:56.138Z,39.33
2023-02-12T19:51:31.940Z,37.70
2023-02-12T19:54:07.291Z,40.88
2023-02-12T19:56:39.977Z,43.13
2023-02-12T19:59:15.754Z,39.53
2023-02-12T20:01:48.773Z,38.80
2023-02-12T20:04:22.507Z,35.47
2023-02-12T20:06:54.922Z,37.70
2023-02-12T20:09:27.009Z,40.03
2023-02-12T20:12:00.021Z,37.92
2023-02-12T20:14:31.903Z,39.78
2023-02-12T20:17:03.849Z,38.78
2023-02-12T20:19:36.050Z,42.42
2023-02-12T20:22:08.229Z,42.00
2023-02-12T20:24:40.294Z,47.88
2023-02-12T20:27:13.241Z,46.10
2023-02-12T20:29:45.222Z,45.50
2023-02-12T20:32:17.388Z,45.13
2023-02-12T20:34:52.541Z,46.45
2023-02-12T20:37:24.550Z,48.85
2023-02-12T20:39:56.697Z,49.85
2023-02-12T20:42:28.641Z,47.15
2023-02-12T20:45:00.547Z,41.97
2023-02-12T20:47:33.781Z,41.38
2023-02-12T20:50:06.863Z,40.80
2023-02-12T20:52:38.966Z,36.70
2023-02-12T20:55:10.978Z,40.38
2023-02-12T20:57:42.990Z,37.47
2023-02-12T21:00:15.677Z,38.45
2023-02-12T21:02:47.561Z,36.72
2023-02-12T21:05:19.525Z,45.03
2023-02-12T21:07:51.596Z,47.30
2023-02-12T21:10:23.813Z,44.15
2023-02-12T21:12:55.752Z,38.85
2023-02-12T21:15:27.686Z,35.80
2023-02-12T21:17:59.617Z,32.35
2023-02-12T21:20:31.600Z,34.65
2023-02-12T21:23:03.597Z,38.05
2023-02-12T21:25:35.641Z,42.40
2023-02-12T21:28:07.645Z,38.53
2023-02-12T21:30:39.718Z,39.70
2023-02-12T21:33:11.703Z,36.38
2023-02-12T21:35:43.625Z,36.80
2023-02-12T21:38:15.552Z,34.92
2023-02-12T21:40:47.564Z,38.67
2023-02-12T21:43:20.560Z,36.35
2023-02-12T21:45:52.769Z,39.25
2023-02-12T21:48:24.849Z,37.20
2023-02-12T21:50:57.723Z,39.30
2023-02-12T21:53:29.941Z,39.22
2023-02-12T21:56:04.098Z,31.70
2023-02-12T21:58:35.956Z,38.20
2023-02-12T22:01:16.099Z,38.13
2023-02-12T22:03:48.054Z,39.63
2023-02-12T22:06:22.559Z,42.85
2023-02-12T22:08:56.140Z,36.75
2023-02-12T22:11:28.222Z,34.10
2023-02-12T22:14:00.396Z,33.17
2023-02-12T22:16:32.617Z,32.58
2023-02-12T22:19:05.935Z,35.40
2023-02-12T22:21:40.557Z,30.83
2023-02-12T22:24:15.618Z,33.28
2023-02-12T22:26:47.569Z,35.20
2023-02-12T22:29:20.213Z,34.55
2023-02-12T22:31:52.867Z,37.28
2023-02-12T22:34:24.868Z,34.40
2023-02-12T22:36:56.821Z,41.08
2023-02-12T22:39:31.425Z,41.55
2023-02-12T22:42:03.591Z,43.80
2023-02-12T22:44:36.341Z,47.25
2023-02-12T22:47:08.280Z,41.10
2023-02-12T22:49:40.256Z,40.35
2023-02-12T22:52:12.752Z,40.58
2023-02-12T22:54:45.103Z,37.05
2023-02-12T22:57:18.129Z,39.65
2023-02-12T22:59:50.137Z,39.15
2023-02-12T23:02:22.059Z,36.28
2023-02-12T23:04:53.951Z,35.35
2023-02-12T23:07:26.158Z,35.92
2023-02-12T23:09:58.052Z,35.42
2023-02-12T23:12:29.982Z,36.88
2023-02-12T23:15:01.872Z,39.58
2023-02-12T23:17:33.756Z,34.65
2023-02-12T23:20:06.017Z,36.05
2023-02-12T23:22:37.942Z,35.42
2023-02-12T23:25:10.080Z,34.25
2023-02-12T23:27:42.017Z,31.60
2023-02-12T23:30:14.605Z,32.63
2023-02-12T23:32:46.586Z,34.67
2023-02-12T23:35:18.540Z,33.28
2023-02-12T23:37:50.704Z,36.17
2023-02-12T23:40:22.723Z,34.05
2023-02-12T23:42:54.758Z,36.63
2023-02-12T23:45:28.052Z,32.65
2023-02-12T23:48:00.099Z,38.60
2023-02-12T23:50:32.328Z,37.20
2023-02-12T23:53:04.233Z,38.08
2023-02-12T23:55:37.614Z,36.53
2023-02-12T23:58:10.336Z,31.60
